createdAt,value
2022-10-04T00:00:28.625Z,16.51
2022-10-04T00:03:07.496Z,16.50
2022-10-04T00:05:37.455Z,16.51
2022-10-04T00:08:26.283Z,16.53
2022-10-04T00:11:14.543Z,16.61
2022-10-04T00:13:49.522Z,16.57
2022-10-04T00:16:26.381Z,16.54
2022-10-04T00:19:22.423Z,16.54
2022-10-04T00:21:58.736Z,16.50
2022-10-04T00:24:32.431Z,16.49
2022-10-04T00:27:22.119Z,16.50
2022-10-04T00:30:10.917Z,16.47
2022-10-04T00:32:39.647Z,16.44
2022-10-04T00:35:27.351Z,16.47
2022-10-04T00:38:00.307Z,16.55
2022-10-04T00:40:37.446Z,16.60
2022-10-04T00:43:09.199Z,16.66
2022-10-04T00:45:43.503Z,16.60
2022-10-04T00:48:31.205Z,16.47
2022-10-04T00:51:30.112Z,16.53
2022-10-04T00:54:17.341Z,16.52
2022-10-04T00:56:50.083Z,16.45
2022-10-04T00:59:30.002Z,16.44
2022-10-04T01:02:06.638Z,16.43
2022-10-04T01:04:43.296Z,16.44
2022-10-04T01:07:15.575Z,16.44
2022-10-04T01:09:55.870Z,16.42
2022-10-04T01:12:49.701Z,16.52
2022-10-04T01:15:36.994Z,16.56
2022-10-04T01:18:09.570Z,16.72
2022-10-04T01:20:49.712Z,16.45
2022-10-04T01:23:36.448Z,16.29
2022-10-04T01:26:27.031Z,16.38
2022-10-04T01:28:59.085Z,16.32
2022-10-04T01:31:28.241Z,16.33
2022-10-04T01:33:56.543Z,16.40
2022-10-04T01:36:24.590Z,16.44
2022-10-04T01:38:52.635Z,16.36
2022-10-04T01:41:30.845Z,16.32
2022-10-04T01:44:01.813Z,16.35
2022-10-04T01:46:36.033Z,16.28
2022-10-04T01:49:10.087Z,16.21
2022-10-04T01:51:44.269Z,16.27
2022-10-04T01:54:20.264Z,16.14
2022-10-04T01:56:52.977Z,16.11
2022-10-04T01:59:37.634Z,16.05
2022-10-04T02:02:18.839Z,15.96
2022-10-04T02:04:55.394Z,15.90
2022-10-04T02:07:26.906Z,15.83
2022-10-04T02:10:00.267Z,15.68
2022-10-04T02:12:31.747Z,15.68
2022-10-04T02:15:02.836Z,15.80
2022-10-04T02:17:33.885Z,15.84
2022-10-04T02:20:03.050Z,15.81
2022-10-04T02:22:31.124Z,15.68
2022-10-04T02:25:00.114Z,15.61
2022-10-04T02:27:31.770Z,15.59
2022-10-04T02:30:07.361Z,15.62
2022-10-04T02:32:56.135Z,15.61
2022-10-04T02:35:28.838Z,15.55
2022-10-04T02:38:05.468Z,15.54
2022-10-04T02:40:53.507Z,15.53
2022-10-04T02:43:39.201Z,15.54
2022-10-04T02:46:17.798Z,15.46
2022-10-04T02:49:02.098Z,15.48
2022-10-04T02:51:54.567Z,15.53
2022-10-04T02:54:50.420Z,15.49
2022-10-04T02:57:23.371Z,15.45
2022-10-04T03:00:09.806Z,15.41
2022-10-04T03:02:40.129Z,15.34
2022-10-04T03:05:12.250Z,15.16
2022-10-04T03:07:41.694Z,15.14
2022-10-04T03:10:12.515Z,15.13
2022-10-04T03:12:41.718Z,15.15
2022-10-04T03:15:11.335Z,15.21
2022-10-04T03:17:42.273Z,15.18
2022-10-04T03:20:16.353Z,15.24
2022-10-04T03:22:47.492Z,15.17
2022-10-04T03:25:21.378Z,15.32
2022-10-04T03:27:51.248Z,15.27
2022-10-04T03:30:20.785Z,15.35
2022-10-04T03:32:51.262Z,15.27
2022-10-04T03:35:38.129Z,15.26
2022-10-04T03:38:11.808Z,15.25
2022-10-04T03:40:45.347Z,15.24
2022-10-04T03:43:16.161Z,15.27
2022-10-04T03:45:44.458Z,15.41
2022-10-04T03:48:18.092Z,15.27
2022-10-04T03:50:48.454Z,15.21
2022-10-04T03:53:29.472Z,15.15
2022-10-04T03:56:02.196Z,15.17
2022-10-04T03:58:33.877Z,15.25
2022-10-04T04:01:29.111Z,15.20
2022-10-04T04:04:23.484Z,15.14
2022-10-04T04:06:56.125Z,15.15
2022-10-04T04:10:05.993Z,15.32
2022-10-04T04:12:51.967Z,15.43
2022-10-04T04:15:19.720Z,15.40
2022-10-04T04:17:54.922Z,15.38
2022-10-04T04:20:29.905Z,15.27
2022-10-04T04:23:01.983Z,15.22
2022-10-04T04:25:34.841Z,15.29
2022-10-04T04:28:17.058Z,15.19
2022-10-04T04:30:48.922Z,15.17
2022-10-04T04:33:46.354Z,15.18
2022-10-04T04:36:17.123Z,15.19
2022-10-04T04:39:05.670Z,15.20
2022-10-04T04:41:37.032Z,15.17
2022-10-04T04:44:13.623Z,15.09
2022-10-04T04:46:44.864Z,15.11
2022-10-04T04:49:15.783Z,15.06
2022-10-04T04:51:51.113Z,15.11
2022-10-04T04:54:25.363Z,15.06
2022-10-04T04:56:56.317Z,15.10
2022-10-04T04:59:27.911Z,15.12
2022-10-04T05:01:55.449Z,15.09
2022-10-04T05:04:26.380Z,14.95
2022-10-04T05:07:01.219Z,14.98
2022-10-04T05:09:38.628Z,14.98
2022-10-04T05:12:18.295Z,14.88
2022-10-04T05:14:48.849Z,14.84
2022-10-04T05:17:21.587Z,14.86
2022-10-04T05:19:50.741Z,14.87
2022-10-04T05:22:23.106Z,14.89
2022-10-04T05:25:01.005Z,14.81
2022-10-04T05:27:36.249Z,14.75
2022-10-04T05:30:07.311Z,14.84
2022-10-04T05:33:01.527Z,14.72
2022-10-04T05:35:38.653Z,14.68
2022-10-04T05:38:19.923Z,14.73
2022-10-04T05:41:09.334Z,14.72
2022-10-04T05:43:45.078Z,14.75
2022-10-04T05:46:28.959Z,14.73
2022-10-04T05:49:04.261Z,14.60
2022-10-04T05:51:38.437Z,14.70
2022-10-04T05:54:10.255Z,14.45
2022-10-04T05:57:07.273Z,14.46
2022-10-04T06:00:12.837Z,14.36
2022-10-04T06:02:45.000Z,14.28
2022-10-04T06:05:48.802Z,14.31
2022-10-04T06:08:24.671Z,14.30
2022-10-04T06:11:15.883Z,14.33
2022-10-04T06:14:02.781Z,14.24
2022-10-04T06:16:49.571Z,14.24
2022-10-04T06:19:20.626Z,14.23
2022-10-04T06:21:53.850Z,14.22
2022-10-04T06:24:29.488Z,14.29
2022-10-04T06:27:11.374Z,14.34
2022-10-04T06:29:44.141Z,14.40
2022-10-04T06:32:11.713Z,14.50
2022-10-04T06:35:17.008Z,14.55
2022-10-04T06:38:22.309Z,14.74
2022-10-04T06:41:10.710Z,14.82
2022-10-04T06:43:50.885Z,14.84
2022-10-04T06:47:02.757Z,14.73
2022-10-04T06:49:57.062Z,14.60
2022-10-04T06:53:00.466Z,14.62
2022-10-04T06:56:13.529Z,14.61
2022-10-04T06:58:57.909Z,14.71
2022-10-04T07:01:29.265Z,14.66
2022-10-04T07:04:19.618Z,14.71
2022-10-04T07:07:20.499Z,14.76
2022-10-04T07:09:50.771Z,14.72
2022-10-04T07:12:19.432Z,14.77
2022-10-04T07:14:54.265Z,14.75
2022-10-04T07:17:29.873Z,14.70
2022-10-04T07:20:00.848Z,14.83
2022-10-04T07:22:42.031Z,14.83
2022-10-04T07:25:34.100Z,14.81
2022-10-04T07:28:26.376Z,14.88
2022-10-04T07:31:03.893Z,14.99
2022-10-04T07:33:42.730Z,15.09
2022-10-04T07:36:17.651Z,15.18
2022-10-04T07:39:02.069Z,15.25
2022-10-04T07:41:54.036Z,15.36
2022-10-04T07:44:26.572Z,15.47
2022-10-04T07:47:29.571Z,15.59
2022-10-04T07:49:58.537Z,15.71
2022-10-04T07:52:54.758Z,15.78
2022-10-04T07:55:37.603Z,15.86
2022-10-04T07:58:29.833Z,15.98
2022-10-04T08:01:03.178Z,16.10
2022-10-04T08:04:06.023Z,16.21
2022-10-04T08:06:34.164Z,16.32
2022-10-04T08:09:04.138Z,16.36
2022-10-04T08:11:50.213Z,16.44
2022-10-04T08:14:38.342Z,16.58
2022-10-04T08:17:21.026Z,16.60
2022-10-04T08:20:19.857Z,16.65
2022-10-04T08:23:16.145Z,16.72
2022-10-04T08:26:03.034Z,16.75
2022-10-04T08:29:13.034Z,16.88
2022-10-04T08:32:04.283Z,17.15
2022-10-04T08:35:24.347Z,17.32
2022-10-04T08:38:10.096Z,17.36
2022-10-04T08:41:05.279Z,17.38
2022-10-04T08:44:11.007Z,17.51
2022-10-04T08:47:12.785Z,17.66
2022-10-04T08:49:49.189Z,17.72
2022-10-04T08:52:20.044Z,17.83
2022-10-04T08:55:07.637Z,17.92
2022-10-04T08:57:56.629Z,17.87
2022-10-04T09:00:39.171Z,17.91
2022-10-04T09:03:45.341Z,17.98
2022-10-04T09:06:41.384Z,18.06
2022-10-04T09:09:40.785Z,18.07
2022-10-04T09:12:10.547Z,18.05
2022-10-04T09:14:56.347Z,18.03
2022-10-04T09:17:50.997Z,18.00
2022-10-04T09:20:45.250Z,18.02
2022-10-04T09:23:32.064Z,17.94
2022-10-04T09:26:13.090Z,17.96
2022-10-04T09:29:09.204Z,18.33
2022-10-04T09:31:48.777Z,18.85
2022-10-04T09:34:25.515Z,19.37
2022-10-04T09:37:29.479Z,19.62
2022-10-04T09:40:18.625Z,19.68
2022-10-04T09:42:56.324Z,19.72
2022-10-04T09:45:36.073Z,19.71
2022-10-04T09:48:26.472Z,19.74
2022-10-04T09:51:08.360Z,19.63
2022-10-04T09:53:36.521Z,19.42
2022-10-04T09:56:19.412Z,19.35
2022-10-04T09:58:53.794Z,19.32
2022-10-04T10:01:41.243Z,19.34
2022-10-04T10:04:30.498Z,19.26
2022-10-04T10:07:17.219Z,19.22
2022-10-04T10:10:24.068Z,19.20
2022-10-04T10:13:32.156Z,18.96
2022-10-04T10:16:21.586Z,18.80
2022-10-04T10:18:50.026Z,18.62
2022-10-04T10:21:32.409Z,18.47
2022-10-04T10:24:23.258Z,18.45
2022-10-04T10:27:14.089Z,18.48
2022-10-04T10:30:00.867Z,18.55
2022-10-04T10:32:45.054Z,18.72
2022-10-04T10:35:31.265Z,18.80
2022-10-04T10:38:36.114Z,18.80
2022-10-04T10:41:27.597Z,18.84
2022-10-04T10:44:03.672Z,18.87
2022-10-04T10:47:09.012Z,19.03
2022-10-04T10:50:06.918Z,19.14
2022-10-04T10:53:20.232Z,19.13
2022-10-04T10:56:09.843Z,18.96
2022-10-04T10:59:25.360Z,18.86
2022-10-04T11:02:05.843Z,18.77
2022-10-04T11:05:03.318Z,18.69
2022-10-04T11:07:53.005Z,18.69
2022-10-04T11:11:11.944Z,18.61
2022-10-04T11:13:49.110Z,18.53
2022-10-04T11:16:41.480Z,18.57
2022-10-04T11:19:30.900Z,18.62
2022-10-04T11:22:50.282Z,18.66
2022-10-04T11:25:26.142Z,18.69
2022-10-04T11:27:59.800Z,18.66
2022-10-04T11:30:58.285Z,18.59
2022-10-04T11:33:40.790Z,18.47
2022-10-04T11:36:31.820Z,18.44
2022-10-04T11:39:32.334Z,18.42
2022-10-04T11:42:18.516Z,18.40
2022-10-04T11:45:05.473Z,18.29
2022-10-04T11:47:48.428Z,18.22
2022-10-04T11:50:45.257Z,18.23
2022-10-04T11:53:33.661Z,18.27
2022-10-04T11:56:27.468Z,18.34
2022-10-04T11:59:01.182Z,18.34
2022-10-04T12:01:47.803Z,18.30
2022-10-04T12:04:53.777Z,18.30
2022-10-04T12:07:57.352Z,18.41
2022-10-04T12:10:36.139Z,18.42
2022-10-04T12:13:05.448Z,18.39
2022-10-04T12:15:39.086Z,18.36
2022-10-04T12:18:46.166Z,18.37
2022-10-04T12:21:42.530Z,18.40
2022-10-04T12:24:29.688Z,18.46
2022-10-04T12:27:15.961Z,18.49
2022-10-04T12:30:15.264Z,18.41
2022-10-04T12:33:08.897Z,18.39
2022-10-04T12:35:54.321Z,18.33
2022-10-04T12:38:37.526Z,18.10
2022-10-04T12:41:24.208Z,17.97
2022-10-04T12:44:10.428Z,17.89
2022-10-04T12:46:55.536Z,17.81
2022-10-04T12:49:41.336Z,17.75
2022-10-04T12:52:24.684Z,17.75
2022-10-04T12:55:25.764Z,17.71
2022-10-04T12:58:05.448Z,17.82
2022-10-04T13:00:41.625Z,17.72
2022-10-04T13:03:35.124Z,17.72
2022-10-04T13:06:21.796Z,17.69
2022-10-04T13:09:01.109Z,17.68
2022-10-04T13:11:52.440Z,17.68
2022-10-04T13:14:45.277Z,17.69
2022-10-04T13:17:41.789Z,17.62
2022-10-04T13:20:18.811Z,17.58
2022-10-04T13:23:27.190Z,17.57
2022-10-04T13:26:15.608Z,17.56
2022-10-04T13:28:51.005Z,17.70
2022-10-04T13:31:35.786Z,17.80
2022-10-04T13:34:28.229Z,18.00
2022-10-04T13:37:38.023Z,18.20
2022-10-04T13:40:22.210Z,18.32
2022-10-04T13:42:56.950Z,18.40
2022-10-04T13:45:43.764Z,18.48
2022-10-04T13:48:31.715Z,18.67
2022-10-04T13:51:39.668Z,18.93
2022-10-04T13:54:32.823Z,19.19
2022-10-04T13:57:02.247Z,19.37
2022-10-04T13:59:43.115Z,19.45
2022-10-04T14:02:49.781Z,19.57
2022-10-04T14:05:23.015Z,19.61
2022-10-04T14:08:15.020Z,19.53
2022-10-04T14:11:16.732Z,19.46
2022-10-04T14:13:45.321Z,19.42
2022-10-04T14:16:50.905Z,19.38
2022-10-04T14:19:37.423Z,19.33
2022-10-04T14:22:32.049Z,19.21
2022-10-04T14:25:26.277Z,19.12
2022-10-04T14:27:57.643Z,19.12
2022-10-04T14:31:02.291Z,19.16
2022-10-04T14:34:13.506Z,19.11
2022-10-04T14:37:09.550Z,18.92
2022-10-04T14:40:16.052Z,18.94
2022-10-04T14:42:54.007Z,18.95
2022-10-04T14:45:58.898Z,18.84
2022-10-04T14:49:05.124Z,18.73
2022-10-04T14:51:45.763Z,18.70
2022-10-04T14:54:18.869Z,18.72
2022-10-04T14:57:00.816Z,18.70
2022-10-04T14:59:49.639Z,18.70
2022-10-04T15:02:18.421Z,18.79
2022-10-04T15:04:48.975Z,18.69
2022-10-04T15:07:16.819Z,18.60
2022-10-04T15:10:03.357Z,18.55
2022-10-04T15:12:58.514Z,18.62
2022-10-04T15:15:20.585Z,18.52
2022-10-04T15:17:48.763Z,18.47
2022-10-04T15:20:37.667Z,18.46
2022-10-04T15:23:19.122Z,18.42
2022-10-04T15:25:57.788Z,18.42
2022-10-04T15:28:28.390Z,18.44
2022-10-04T15:31:21.302Z,18.38
2022-10-04T15:34:29.347Z,18.34
2022-10-04T15:37:17.060Z,18.33
2022-10-04T15:40:05.314Z,18.29
2022-10-04T15:42:54.619Z,18.33
2022-10-04T15:45:53.872Z,18.30
2022-10-04T15:48:26.263Z,18.30
2022-10-04T15:51:07.144Z,18.28
2022-10-04T15:53:41.328Z,18.34
2022-10-04T15:56:33.635Z,18.38
2022-10-04T15:59:42.724Z,18.39
2022-10-04T16:02:35.919Z,18.44
2022-10-04T16:05:17.570Z,18.48
2022-10-04T16:08:01.573Z,18.59
2022-10-04T16:10:58.738Z,18.56
2022-10-04T16:13:53.807Z,18.60
2022-10-04T16:16:40.443Z,18.53
2022-10-04T16:19:24.264Z,18.49
2022-10-04T16:22:09.415Z,18.39
2022-10-04T16:24:42.628Z,18.31
2022-10-04T16:27:17.362Z,18.29
2022-10-04T16:30:26.081Z,18.32
2022-10-04T16:33:24.402Z,18.25
2022-10-04T16:36:05.518Z,18.27
2022-10-04T16:39:06.996Z,18.18
2022-10-04T16:41:41.301Z,18.08
2022-10-04T16:44:30.604Z,18.10
2022-10-04T16:47:03.324Z,18.01
2022-10-04T16:49:41.809Z,17.99
2022-10-04T16:52:22.802Z,17.95
2022-10-04T16:55:28.176Z,17.93
2022-10-04T16:58:27.963Z,17.95
2022-10-04T17:01:29.903Z,17.94
2022-10-04T17:04:18.506Z,17.87
2022-10-04T17:07:05.718Z,17.95
2022-10-04T17:09:53.641Z,17.94
2022-10-04T17:12:42.141Z,17.83
2022-10-04T17:15:27.815Z,17.87
2022-10-04T17:18:09.165Z,17.86
2022-10-04T17:20:43.188Z,17.80
2022-10-04T17:23:39.093Z,17.80
2022-10-04T17:26:36.089Z,17.66
2022-10-04T17:29:19.177Z,17.64
2022-10-04T17:32:25.143Z,17.64
2022-10-04T17:35:21.094Z,17.66
2022-10-04T17:38:22.670Z,17.71
2022-10-04T17:40:59.520Z,17.63
2022-10-04T17:43:48.389Z,17.51
2022-10-04T17:46:38.240Z,17.52
2022-10-04T17:49:35.889Z,17.50
2022-10-04T17:52:52.567Z,17.47
2022-10-04T17:55:30.342Z,17.50
2022-10-04T17:58:06.969Z,17.58
2022-10-04T18:00:58.476Z,17.46
2022-10-04T18:03:52.441Z,17.47
2022-10-04T18:06:54.037Z,17.49
2022-10-04T18:09:42.310Z,17.47
2022-10-04T18:12:26.776Z,17.49
2022-10-04T18:15:18.606Z,17.58
2022-10-04T18:17:51.608Z,17.53
2022-10-04T18:20:27.451Z,17.41
2022-10-04T18:23:18.556Z,17.52
2022-10-04T18:25:49.078Z,17.41
2022-10-04T18:28:22.377Z,17.45
2022-10-04T18:30:51.400Z,17.36
2022-10-04T18:33:26.450Z,17.34
2022-10-04T18:36:07.507Z,17.31
2022-10-04T18:38:37.076Z,17.47
2022-10-04T18:41:18.408Z,17.52
2022-10-04T18:44:13.564Z,17.36
2022-10-04T18:46:48.447Z,17.45
2022-10-04T18:49:27.075Z,17.42
2022-10-04T18:52:11.428Z,17.33
2022-10-04T18:54:54.912Z,17.32
2022-10-04T18:57:31.916Z,17.19
2022-10-04T19:00:26.298Z,17.21
2022-10-04T19:03:19.929Z,17.30
2022-10-04T19:06:16.443Z,17.23
2022-10-04T19:09:12.396Z,17.22
2022-10-04T19:11:50.275Z,17.18
2022-10-04T19:14:58.969Z,17.08
2022-10-04T19:17:34.176Z,17.14
2022-10-04T19:20:04.492Z,17.16
2022-10-04T19:22:35.364Z,17.23
2022-10-04T19:25:10.128Z,17.22
2022-10-04T19:27:49.022Z,17.12
2022-10-04T19:30:26.517Z,17.15
2022-10-04T19:33:13.967Z,17.13
2022-10-04T19:35:46.232Z,17.12
2022-10-04T19:38:23.041Z,17.07
2022-10-04T19:40:59.242Z,17.05
2022-10-04T19:43:43.450Z,16.96
2022-10-04T19:46:48.378Z,16.96
2022-10-04T19:49:51.417Z,16.87
2022-10-04T19:52:18.906Z,16.95
2022-10-04T19:55:04.253Z,16.84
2022-10-04T19:57:38.699Z,16.84
2022-10-04T20:00:13.584Z,16.86
2022-10-04T20:02:48.490Z,16.83
2022-10-04T20:05:25.182Z,16.90
2022-10-04T20:08:05.602Z,16.92
2022-10-04T20:10:38.163Z,16.83
2022-10-04T20:13:12.438Z,16.75
2022-10-04T20:15:40.650Z,16.74
2022-10-04T20:18:33.417Z,16.74
2022-10-04T20:21:01.578Z,16.78
2022-10-04T20:23:41.748Z,16.75
2022-10-04T20:26:53.089Z,16.77
2022-10-04T20:29:53.898Z,16.75
2022-10-04T20:32:26.733Z,16.72
2022-10-04T20:34:58.297Z,16.69
2022-10-04T20:38:27.326Z,16.75
2022-10-04T20:40:47.016Z,16.70
2022-10-04T20:43:15.243Z,16.69
2022-10-04T20:45:54.566Z,16.70
2022-10-04T20:48:24.655Z,16.74
2022-10-04T20:50:53.739Z,16.75
2022-10-04T20:53:32.782Z,16.71
2022-10-04T20:56:24.118Z,16.71
2022-10-04T20:58:53.968Z,16.79
2022-10-04T21:01:37.742Z,16.83
2022-10-04T21:04:42.100Z,16.84
2022-10-04T21:07:18.580Z,16.72
2022-10-04T21:09:46.444Z,16.71
2022-10-04T21:12:35.897Z,16.74
2022-10-04T21:15:15.922Z,16.75
2022-10-04T21:18:07.894Z,16.65
2022-10-04T21:20:45.755Z,16.68
2022-10-04T21:23:39.288Z,16.67
2022-10-04T21:26:24.282Z,16.67
2022-10-04T21:28:58.290Z,16.66
2022-10-04T21:31:25.981Z,16.58
2022-10-04T21:33:53.432Z,16.63
2022-10-04T21:36:20.855Z,16.67
2022-10-04T21:38:48.679Z,16.75
2022-10-04T21:41:16.997Z,16.71
2022-10-04T21:43:45.532Z,16.59
2022-10-04T21:46:19.275Z,16.60
2022-10-04T21:48:52.932Z,16.74
2022-10-04T21:51:20.344Z,16.59
2022-10-04T21:53:48.968Z,16.63
2022-10-04T21:56:16.713Z,16.66
2022-10-04T21:58:44.136Z,16.71
2022-10-04T22:01:11.661Z,16.68
2022-10-04T22:03:39.144Z,16.62
2022-10-04T22:06:08.406Z,16.53
2022-10-04T22:08:36.235Z,16.53
2022-10-04T22:11:03.694Z,16.51
2022-10-04T22:13:31.187Z,16.51
2022-10-04T22:15:58.587Z,16.52
2022-10-04T22:18:28.591Z,16.56
2022-10-04T22:20:56.223Z,16.48
2022-10-04T22:23:27.570Z,16.53
2022-10-04T22:25:56.522Z,16.56
2022-10-04T22:28:28.250Z,16.48
2022-10-04T22:30:56.779Z,16.50
2022-10-04T22:33:36.000Z,16.38
2022-10-04T22:36:27.446Z,16.31
2022-10-04T22:39:13.395Z,16.40
2022-10-04T22:42:01.450Z,16.41
2022-10-04T22:44:36.999Z,16.45
2022-10-04T22:47:11.219Z,16.47
2022-10-04T22:49:44.415Z,16.33
2022-10-04T22:52:23.991Z,16.15
2022-10-04T22:54:55.697Z,16.10
2022-10-04T22:57:24.553Z,16.11
2022-10-04T22:59:52.736Z,16.19
2022-10-04T23:02:28.725Z,16.19
2022-10-04T23:05:02.216Z,16.23
2022-10-04T23:07:32.781Z,16.18
2022-10-04T23:10:02.646Z,16.10
2022-10-04T23:12:30.042Z,16.09
2022-10-04T23:14:57.413Z,16.15
2022-10-04T23:17:28.871Z,16.13
2022-10-04T23:19:59.248Z,16.10
2022-10-04T23:22:28.994Z,16.15
2022-10-04T23:24:57.248Z,16.20
2022-10-04T23:27:24.898Z,16.18
2022-10-04T23:30:06.510Z,16.14
2022-10-04T23:32:34.467Z,16.13
2022-10-04T23:35:04.531Z,16.08
2022-10-04T23:37:32.697Z,16.09
2022-10-04T23:40:00.181Z,16.09
2022-10-04T23:42:33.826Z,16.07
2022-10-04T23:45:02.608Z,16.05
2022-10-04T23:47:37.027Z,16.17
2022-10-04T23:50:33.109Z,16.11
2022-10-04T23:53:04.875Z,16.18
2022-10-04T23:55:42.008Z,16.32
2022-10-04T23:58:17.238Z,16.21
